Time;durP1;ratioP1;P1;durP2;ratioP2;P2;SDS_P1;SDS_P2;PMS_P1;PMS_P2;Temp;Humidity;BMP_temperature;BMP_pressure;BME280_temperature;BME280_humidity;BME280_pressure;Samples;Min_cycle;Max_cycle;Signal;HPM_P1;HPM_P2
2021/10/13 00:00:41;;;;;;;2.67;2.13;;;5.80;99.90;;;;;;5139023;28;20181;-82
2021/10/13 00:03:06;;;;;;;4.30;2.63;;;5.80;99.90;;;;;;5138768;28;20180;-82
2021/10/13 00:05:32;;;;;;;3.00;2.57;;;5.80;99.90;;;;;;5136574;28;20630;-82
2021/10/13 00:07:57;;;;;;;4.70;2.83;;;5.80;99.90;;;;;;5136766;28;20178;-82
2021/10/13 00:10:23;;;;;;;2.60;2.30;;;5.80;99.90;;;;;;5138010;28;20197;-82
2021/10/13 00:12:49;;;;;;;2.73;2.17;;;5.80;99.90;;;;;;5137292;28;20174;-82
2021/10/13 00:15:14;;;;;;;2.27;2.07;;;5.70;99.90;;;;;;5143442;28;20171;-80
2021/10/13 00:17:40;;;;;;;2.83;2.40;;;5.80;99.90;;;;;;5146929;27;20177;-81
2021/10/13 00:20:07;;;;;;;2.97;2.20;;;5.80;99.90;;;;;;5142398;27;20191;-82
2021/10/13 00:22:33;;;;;;;2.47;2.20;;;5.80;99.90;;;;;;5141383;27;20180;-82
2021/10/13 00:24:58;;;;;;;2.53;1.57;;;5.80;99.90;;;;;;5140080;27;20171;-82
2021/10/13 00:27:24;;;;;;;3.20;2.20;;;5.80;99.90;;;;;;5139658;27;20262;-81
2021/10/13 00:29:49;;;;;;;2.47;1.87;;;5.80;99.90;;;;;;5141267;27;20188;-82
2021/10/13 00:32:15;;;;;;;2.30;2.10;;;5.80;99.90;;;;;;5140918;27;20197;-82
2021/10/13 00:34:41;;;;;;;2.13;1.90;;;5.80;99.90;;;;;;5141460;27;20168;-82
2021/10/13 00:37:07;;;;;;;3.23;1.70;;;5.80;99.90;;;;;;5141061;27;20566;-81
2021/10/13 00:39:32;;;;;;;2.33;2.07;;;5.80;99.90;;;;;;5140176;27;20226;-82
2021/10/13 00:41:58;;;;;;;2.50;1.67;;;5.80;99.90;;;;;;5141927;27;20168;-82
2021/10/13 00:44:24;;;;;;;1.47;1.37;;;5.80;99.90;;;;;;5141510;27;20246;-82
2021/10/13 00:46:50;;;;;;;1.53;1.43;;;5.80;99.90;;;;;;5141443;27;20175;-82
2021/10/13 00:49:15;;;;;;;1.53;1.43;;;5.70;99.90;;;;;;5141989;27;20656;-82
2021/10/13 00:51:41;;;;;;;1.83;1.20;;;5.70;99.90;;;;;;5140397;27;20186;-82
2021/10/13 00:54:09;;;;;;;2.47;1.47;;;5.70;99.90;;;;;;5144814;27;20194;-82
2021/10/13 00:56:35;;;;;;;1.40;1.30;;;5.70;99.90;;;;;;5154662;27;20551;-81
2021/10/13 00:59:01;;;;;;;2.17;1.27;;;5.70;99.90;;;;;;5154347;27;20197;-82
2021/10/13 01:01:40;;;;;;;1.50;1.40;;;5.70;99.90;;;;;;5140426;27;20595;-81
2021/10/13 01:04:31;;;;;;;1.53;1.43;;;5.70;99.90;;;;;;5138955;27;20177;-81
2021/10/13 01:07:22;;;;;;;1.80;1.70;;;5.70;99.90;;;;;;5138465;27;20444;-81
2021/10/13 01:10:03;;;;;;;1.63;1.53;;;5.70;99.90;;;;;;5140126;27;20196;-82
2021/10/13 01:12:52;;;;;;;2.27;1.80;;;5.60;99.90;;;;;;5139943;27;20250;-81
2021/10/13 01:15:32;;;;;;;2.27;1.90;;;5.60;99.90;;;;;;5140041;27;20175;-81
2021/10/13 01:18:22;;;;;;;3.37;2.07;;;5.60;99.90;;;;;;5140330;27;20445;-81
2021/10/13 01:21:02;;;;;;;2.00;1.70;;;5.70;99.90;;;;;;5139546;27;20444;-81
2021/10/13 01:24:02;;;;;;;2.70;2.03;;;5.70;99.90;;;;;;5140426;27;20175;-81
2021/10/13 01:26:47;;;;;;;2.60;2.27;;;5.70;99.90;;;;;;5138675;27;20228;-81
2021/10/13 01:29:18;;;;;;;3.97;2.20;;;5.70;99.90;;;;;;5137760;27;20199;-81
2021/10/13 01:31:58;;;;;;;2.20;2.00;;;5.70;99.90;;;;;;5138490;27;20175;-81
2021/10/13 01:34:44;;;;;;;2.40;2.20;;;5.70;99.90;;;;;;5138216;27;20171;-81
2021/10/13 01:37:22;;;;;;;2.33;2.13;;;5.70;99.90;;;;;;5138790;27;20220;-81
2021/10/13 01:39:52;;;;;;;2.47;2.10;;;5.60;99.90;;;;;;5139827;27;20416;-81
2021/10/13 01:42:20;;;;;;;2.50;2.30;;;5.50;99.90;;;;;;5140051;27;20386;-82
2021/10/13 01:44:49;;;;;;;2.53;2.33;;;5.50;99.90;;;;;;5139878;27;20167;-81
2021/10/13 01:47:17;;;;;;;2.47;2.27;;;5.40;99.90;;;;;;5139670;27;20174;-82
2021/10/13 01:49:44;;;;;;;2.77;2.33;;;5.40;99.90;;;;;;5139267;27;20568;-82
2021/10/13 01:52:11;;;;;;;4.57;2.60;;;5.30;99.90;;;;;;5140587;27;20183;-82
2021/10/13 01:54:39;;;;;;;3.33;2.77;;;5.40;99.90;;;;;;5140780;27;20197;-82
2021/10/13 01:57:06;;;;;;;3.93;2.67;;;5.40;99.90;;;;;;5144546;27;20451;-81
2021/10/13 01:59:34;;;;;;;4.00;3.13;;;5.40;99.90;;;;;;5138210;27;20440;-81
2021/10/13 02:02:00;;;;;;;3.40;3.10;;;5.50;99.90;;;;;;5137888;27;20199;-81
2021/10/13 02:04:28;;;;;;;3.30;2.90;;;5.50;99.90;;;;;;5139324;27;20465;-82
2021/10/13 02:06:55;;;;;;;3.13;2.83;;;5.50;99.90;;;;;;5139898;27;20429;-81
2021/10/13 02:09:25;;;;;;;4.87;3.30;;;5.50;99.90;;;;;;5138853;27;20237;-81
2021/10/13 02:11:52;;;;;;;3.87;3.40;;;5.60;99.90;;;;;;5138233;27;20180;-82
2021/10/13 02:14:20;;;;;;;4.33;3.40;;;5.60;99.90;;;;;;5138036;27;20551;-82
2021/10/13 02:16:50;;;;;;;4.60;3.53;;;5.60;99.90;;;;;;5137993;27;20200;-81
2021/10/13 02:19:19;;;;;;;5.20;3.57;;;5.50;99.90;;;;;;5137474;27;20777;-81
2021/10/13 02:21:52;;;;;;;3.60;3.30;;;5.60;99.90;;;;;;5135960;27;20689;-81
2021/10/13 02:24:28;;;;;;;4.07;3.40;;;5.50;99.90;;;;;;5136713;27;20158;-81
2021/10/13 02:27:12;;;;;;;4.60;3.27;;;5.50;99.90;;;;;;5135504;27;20178;-81
2021/10/13 02:29:39;;;;;;;5.53;3.40;;;5.60;99.90;;;;;;5135079;27;20235;-82
2021/10/13 02:32:06;;;;;;;3.90;3.43;;;5.60;99.90;;;;;;5134871;27;20187;-81
2021/10/13 02:34:32;;;;;;;4.20;3.80;;;5.50;99.90;;;;;;5134395;27;20662;-82
2021/10/13 02:36:58;;;;;;;6.03;4.07;;;5.50;99.90;;;;;;5136255;27;20745;-82
2021/10/13 02:39:24;;;;;;;4.10;3.70;;;5.50;99.90;;;;;;5136818;27;20192;-82
2021/10/13 02:41:53;;;;;;;6.17;3.90;;;5.50;99.90;;;;;;5137678;27;20204;-82
2021/10/13 02:44:19;;;;;;;4.40;4.00;;;5.40;99.90;;;;;;5140195;27;20182;-81
2021/10/13 02:46:55;;;;;;;5.10;4.27;;;5.40;99.90;;;;;;5139628;27;20175;-82
2021/10/13 02:49:49;;;;;;;4.40;3.87;;;5.40;99.90;;;;;;5139426;27;20243;-82
2021/10/13 02:52:33;;;;;;;5.93;4.77;;;5.40;99.90;;;;;;5152366;27;20195;-81
2021/10/13 02:55:15;;;;;;;4.77;4.23;;;5.40;99.90;;;;;;5152716;27;20156;-81
2021/10/13 02:58:25;;;;;;;4.87;4.30;;;5.50;99.90;;;;;;5153593;27;20199;-81
2021/10/13 03:00:53;;;;;;;5.13;4.57;;;5.50;99.90;;;;;;5140590;27;20171;-81
2021/10/13 03:03:35;;;;;;;5.47;4.53;;;5.50;99.90;;;;;;5136489;27;20173;-81
2021/10/13 03:06:04;;;;;;;6.77;4.67;;;5.50;99.90;;;;;;5137311;27;20156;-82
2021/10/13 03:08:33;;;;;;;5.87;4.70;;;5.50;99.90;;;;;;5135455;27;20179;-81
2021/10/13 03:11:01;;;;;;;5.30;4.73;;;5.50;99.90;;;;;;5135663;27;20176;-81
2021/10/13 03:13:33;;;;;;;7.87;4.63;;;5.50;99.90;;;;;;5137524;27;20203;-81
2021/10/13 03:16:01;;;;;;;8.03;4.90;;;5.50;99.90;;;;;;5137207;27;20724;-81
2021/10/13 03:18:28;;;;;;;6.97;5.40;;;5.50;99.90;;;;;;5137669;27;20179;-81
2021/10/13 03:20:54;;;;;;;7.03;5.43;;;5.50;99.90;;;;;;5137836;28;20167;-81
2021/10/13 03:23:22;;;;;;;6.97;5.90;;;5.50;99.90;;;;;;5136094;28;20176;-81
2021/10/13 03:25:51;;;;;;;7.73;5.10;;;5.50;99.90;;;;;;5137900;28;20209;-81
2021/10/13 03:28:17;;;;;;;6.87;5.20;;;5.50;99.90;;;;;;5135962;27;20172;-81
2021/10/13 03:30:44;;;;;;;6.37;5.20;;;5.50;99.90;;;;;;5136050;28;20658;-81
2021/10/13 03:33:10;;;;;;;6.90;5.80;;;5.50;99.90;;;;;;5137140;28;20668;-81
2021/10/13 03:35:36;;;;;;;7.10;5.17;;;5.50;99.90;;;;;;5135852;28;20188;-81
2021/10/13 03:38:04;;;;;;;6.87;5.67;;;5.40;99.90;;;;;;5137610;28;20160;-81
2021/10/13 03:40:32;;;;;;;7.00;5.67;;;5.40;99.90;;;;;;5136437;28;20195;-81
2021/10/13 03:42:57;;;;;;;8.70;5.50;;;5.30;99.90;;;;;;5138001;28;20173;-81
2021/10/13 03:45:24;;;;;;;7.43;5.50;;;5.30;99.90;;;;;;5137360;28;20181;-81
2021/10/13 03:47:50;;;;;;;7.20;5.87;;;5.30;99.90;;;;;;5137860;28;20197;-81
2021/10/13 03:50:18;;;;;;;8.53;5.93;;;5.30;99.90;;;;;;5136690;28;20191;-82
2021/10/13 03:52:44;;;;;;;7.83;5.97;;;5.30;99.90;;;;;;5136806;27;20536;-82
2021/10/13 03:55:13;;;;;;;8.80;6.27;;;5.20;99.90;;;;;;5141490;27;20173;-81
2021/10/13 03:57:39;;;;;;;8.33;6.27;;;5.20;99.90;;;;;;5141584;27;20559;-81
2021/10/13 04:00:08;;;;;;;8.73;6.07;;;5.20;99.90;;;;;;5141456;27;20198;-81
2021/10/13 04:02:34;;;;;;;10.07;6.80;;;5.10;99.90;;;;;;5140805;27;20181;-81
2021/10/13 04:04:59;;;;;;;10.17;6.00;;;5.10;99.90;;;;;;5141878;27;20167;-82
2021/10/13 04:07:25;;;;;;;7.43;6.03;;;5.10;99.90;;;;;;5141747;27;20175;-81
2021/10/13 04:09:51;;;;;;;8.07;6.13;;;5.10;99.90;;;;;;5141321;27;20205;-82
2021/10/13 04:12:16;;;;;;;7.33;5.70;;;5.20;99.90;;;;;;5142426;27;20258;-82
2021/10/13 04:14:42;;;;;;;8.10;6.27;;;5.20;99.90;;;;;;5140907;27;20180;-81
2021/10/13 04:17:08;;;;;;;9.10;6.20;;;5.20;99.90;;;;;;5145643;27;20673;-81
2021/10/13 04:19:34;;;;;;;9.93;6.80;;;5.20;99.90;;;;;;5143552;27;20195;-82
2021/10/13 04:21:59;;;;;;;11.27;7.97;;;5.20;99.90;;;;;;5146219;27;20250;-82
2021/10/13 04:24:25;;;;;;;11.40;7.73;;;5.30;99.90;;;;;;5141674;27;20540;-82
2021/10/13 04:26:51;;;;;;;11.37;7.57;;;5.40;99.90;;;;;;5141586;27;20201;-81
2021/10/13 04:29:16;;;;;;;10.57;7.70;;;5.40;99.90;;;;;;5141726;27;20305;-81
2021/10/13 04:31:42;;;;;;;9.93;7.10;;;5.40;99.90;;;;;;5142048;27;20193;-81
2021/10/13 04:34:08;;;;;;;9.10;7.27;;;5.40;99.90;;;;;;5143975;27;20647;-81
2021/10/13 04:36:33;;;;;;;10.37;6.80;;;5.30;99.90;;;;;;5143912;27;20632;-81
2021/10/13 04:38:59;;;;;;;10.67;6.63;;;;;;;;;;5143340;27;20648;-81
2021/10/13 04:41:25;;;;;;;11.40;6.93;;;5.30;99.90;;;;;;5142194;27;20242;-81
2021/10/13 04:43:50;;;;;;;10.53;7.37;;;5.20;99.90;;;;;;5142964;27;20177;-81
2021/10/13 04:46:16;;;;;;;10.57;7.10;;;5.20;99.90;;;;;;5141176;27;20342;-81
2021/10/13 04:48:42;;;;;;;13.63;8.23;;;5.20;99.90;;;;;;5141533;27;20262;-82
2021/10/13 04:51:07;;;;;;;10.47;6.83;;;5.20;99.90;;;;;;5141344;27;20182;-82
2021/10/13 04:53:33;;;;;;;9.67;7.47;;;5.10;99.90;;;;;;5140168;27;20182;-81
2021/10/13 04:55:59;;;;;;;10.80;8.20;;;5.10;99.90;;;;;;5139008;27;20207;-81
2021/10/13 04:58:25;;;;;;;9.67;7.47;;;5.10;99.90;;;;;;5139977;27;20171;-82
2021/10/13 05:00:50;;;;;;;10.13;7.57;;;5.10;99.90;;;;;;5139967;27;20178;-82
2021/10/13 05:03:16;;;;;;;9.37;7.30;;;5.10;99.90;;;;;;5141888;27;20175;-82
2021/10/13 05:05:42;;;;;;;12.40;8.30;;;5.10;99.90;;;;;;5140954;27;20643;-82
2021/10/13 05:08:08;;;;;;;13.37;9.13;;;5.10;99.90;;;;;;5145336;27;20198;-81
2021/10/13 05:10:35;;;;;;;11.60;8.83;;;5.20;99.90;;;;;;5153669;27;20263;-81
2021/10/13 05:13:01;;;;;;;15.13;8.93;;;5.20;99.90;;;;;;5152912;27;20170;-81
2021/10/13 05:15:27;;;;;;;12.27;8.53;;;5.30;99.90;;;;;;5151898;27;20443;-81
2021/10/13 05:17:52;;;;;;;14.43;9.40;;;5.30;99.90;;;;;;5139479;27;20185;-81
2021/10/13 05:20:18;;;;;;;12.57;9.03;;;5.30;99.90;;;;;;5141377;27;20265;-81
2021/10/13 05:22:44;;;;;;;11.93;8.47;;;5.40;99.90;;;;;;5140340;27;20183;-82
2021/10/13 05:25:09;;;;;;;11.93;8.10;;;5.40;99.90;;;;;;5139331;27;20273;-82
2021/10/13 05:27:35;;;;;;;10.00;7.63;;;5.40;99.90;;;;;;5140720;27;20216;-82
2021/10/13 05:30:02;;;;;;;9.23;7.10;;;5.50;99.90;;;;;;5141970;27;20188;-83
2021/10/13 05:32:27;;;;;;;12.87;10.77;;;5.50;99.90;;;;;;5139061;27;20204;-81
2021/10/13 05:34:53;;;;;;;15.67;12.37;;;5.60;99.90;;;;;;5138182;27;20841;-81
2021/10/13 05:37:19;;;;;;;25.80;18.60;;;5.50;99.90;;;;;;5138389;27;20663;-82
2021/10/13 05:39:44;;;;;;;12.43;9.53;;;5.50;99.90;;;;;;5138124;27;20205;-82
2021/10/13 05:42:10;;;;;;;16.83;12.57;;;5.40;99.90;;;;;;5137038;27;20177;-81
2021/10/13 05:44:36;;;;;;;18.47;13.60;;;5.40;99.90;;;;;;5138378;27;20250;-81
2021/10/13 05:47:01;;;;;;;16.13;14.13;;;5.40;99.90;;;;;;5138113;27;20177;-81
2021/10/13 05:49:27;;;;;;;27.77;23.77;;;5.40;99.90;;;;;;5136571;27;20565;-82
2021/10/13 05:51:53;;;;;;;11.00;8.77;;;5.40;99.90;;;;;;5140449;27;20226;-81
2021/10/13 05:54:18;;;;;;;11.43;9.53;;;5.30;99.90;;;;;;5139340;27;20258;-81
2021/10/13 05:56:44;;;;;;;15.27;9.37;;;5.30;99.90;;;;;;5138344;27;20206;-82
2021/10/13 05:59:10;;;;;;;10.53;9.23;;;5.30;99.90;;;;;;5138439;27;20197;-82
2021/10/13 06:01:35;;;;;;;13.00;8.87;;;5.30;99.90;;;;;;5138434;27;20262;-82
2021/10/13 06:04:01;;;;;;;11.47;8.60;;;5.30;99.90;;;;;;5137904;27;20166;-81
2021/10/13 06:06:27;;;;;;;13.47;10.10;;;5.30;99.90;;;;;;5138849;27;20201;-81
2021/10/13 06:08:52;;;;;;;13.50;10.60;;;5.30;99.90;;;;;;5140264;27;20210;-81
2021/10/13 06:11:18;;;;;;;11.43;9.40;;;5.20;99.90;;;;;;5140845;27;20171;-81
2021/10/13 06:13:44;;;;;;;11.83;9.57;;;5.30;99.90;;;;;;5138699;27;20263;-81
2021/10/13 06:16:11;;;;;;;15.53;9.20;;;5.30;99.90;;;;;;5138028;27;20198;-81
2021/10/13 06:18:37;;;;;;;10.53;8.23;;;5.30;99.90;;;;;;5138984;27;20179;-82
2021/10/13 06:21:03;;;;;;;11.00;8.77;;;5.30;99.90;;;;;;5138068;27;20450;-81
2021/10/13 06:23:29;;;;;;;11.57;8.17;;;5.30;99.90;;;;;;5137980;27;20435;-81
2021/10/13 06:25:55;;;;;;;13.40;8.70;;;5.40;99.90;;;;;;5138024;27;20178;-82
2021/10/13 06:28:20;;;;;;;12.23;8.73;;;5.40;99.90;;;;;;5138155;27;20216;-82
2021/10/13 06:30:46;;;;;;;12.10;8.57;;;5.40;99.90;;;;;;5139528;27;20184;-81
2021/10/13 06:33:12;;;;;;;10.43;8.57;;;5.40;99.90;;;;;;5139339;27;20186;-82
2021/10/13 06:35:38;;;;;;;11.47;9.03;;;5.40;99.90;;;;;;5137783;27;20514;-82
2021/10/13 06:38:04;;;;;;;10.80;8.87;;;5.50;99.90;;;;;;5140466;27;20202;-82
2021/10/13 06:40:30;;;;;;;13.83;10.10;;;5.50;99.90;;;;;;5139263;27;20632;-82
2021/10/13 06:42:56;;;;;;;12.83;10.93;;;5.60;99.90;;;;;;5139658;27;20417;-82
2021/10/13 06:45:22;;;;;;;14.23;10.73;;;5.60;99.90;;;;;;5137556;27;20175;-82
2021/10/13 06:47:47;;;;;;;12.57;11.03;;;5.70;99.90;;;;;;5138761;27;20557;-82
2021/10/13 06:50:13;;;;;;;10.57;8.87;;;5.60;99.90;;;;;;5142868;27;20424;-81
2021/10/13 06:52:39;;;;;;;10.47;8.00;;;5.70;99.90;;;;;;5138993;27;20186;-82
2021/10/13 06:55:06;;;;;;;11.67;9.07;;;5.70;99.90;;;;;;5139520;27;20171;-82
2021/10/13 06:57:31;;;;;;;11.33;8.97;;;5.70;99.90;;;;;;5139753;27;20195;-82
2021/10/13 06:59:57;;;;;;;9.73;7.90;;;5.70;99.90;;;;;;5138108;27;20228;-81
2021/10/13 07:02:23;;;;;;;8.97;7.30;;;5.80;99.90;;;;;;5139268;27;20171;-82
2021/10/13 07:04:48;;;;;;;11.93;7.37;;;5.80;99.90;;;;;;5139027;27;20171;-81
2021/10/13 07:07:14;;;;;;;16.60;13.93;;;5.80;99.90;;;;;;5138451;27;20178;-81
2021/10/13 07:09:40;;;;;;;52.87;40.90;;;5.90;99.90;;;;;;5138592;27;20198;-81
2021/10/13 07:12:05;;;;;;;121.73;89.13;;;6.00;99.90;;;;;;5138924;27;20178;-82
2021/10/13 07:14:31;;;;;;;15.77;13.50;;;6.10;99.90;;;;;;5140052;27;20201;-82
2021/10/13 07:16:57;;;;;;;14.10;11.40;;;6.20;99.90;;;;;;5142454;27;20213;-81
2021/10/13 07:19:23;;;;;;;9.17;8.03;;;6.40;99.90;;;;;;5151671;27;20258;-81
2021/10/13 07:21:48;;;;;;;9.20;6.67;;;6.40;99.90;;;;;;5153130;28;20171;-81
2021/10/13 07:24:14;;;;;;;6.60;5.30;;;6.60;99.90;;;;;;5146222;28;20185;-81
2021/10/13 07:26:43;;;;;;;9.70;6.37;;;6.80;99.90;;;;;;5137570;27;20187;-81
2021/10/13 07:29:10;;;;;;;7.17;5.53;;;6.90;99.90;;;;;;5140864;27;20277;-81
2021/10/13 07:31:35;;;;;;;7.90;5.60;;;7.10;99.90;;;;;;5140795;27;20182;-81
2021/10/13 07:34:01;;;;;;;6.43;5.37;;;7.10;99.90;;;;;;5139467;27;20183;-81
2021/10/13 07:36:27;;;;;;;6.17;4.80;;;7.20;99.90;;;;;;5142693;27;20691;-81
2021/10/13 07:38:52;;;;;;;7.77;5.10;;;7.20;99.90;;;;;;5142131;27;20195;-81
2021/10/13 07:41:18;;;;;;;21.60;17.00;;;7.30;99.90;;;;;;5142481;27;20223;-81
2021/10/13 07:43:46;;;;;;;9.23;6.13;;;7.20;99.90;;;;;;5142428;27;20648;-81
2021/10/13 07:46:12;;;;;;;13.63;10.50;;;7.10;99.90;;;;;;5142660;27;20174;-81
2021/10/13 07:48:38;;;;;;;15.20;10.40;;;7.10;99.90;;;;;;5140969;27;20195;-81
2021/10/13 07:51:04;;;;;;;4.43;3.63;;;7.20;99.90;;;;;;5140239;27;20186;-81
2021/10/13 07:53:30;;;;;;;6.53;4.90;;;7.40;99.90;;;;;;5141027;27;20170;-81
2021/10/13 07:55:55;;;;;;;4.30;3.70;;;7.50;99.90;;;;;;5141219;27;20210;-81
2021/10/13 07:58:22;;;;;;;6.63;4.07;;;7.40;99.90;;;;;;5139946;27;20171;-81
2021/10/13 08:00:47;;;;;;;7.83;4.90;;;7.30;99.90;;;;;;5141020;27;20173;-81
2021/10/13 08:03:13;;;;;;;6.60;5.00;;;7.00;99.90;;;;;;5141351;27;20286;-81
2021/10/13 08:05:39;;;;;;;5.77;4.20;;;7.00;99.90;;;;;;5140311;27;20236;-81
2021/10/13 08:08:05;;;;;;;4.73;4.13;;;6.90;99.90;;;;;;5139590;27;20181;-81
2021/10/13 08:10:31;;;;;;;7.17;4.50;;;6.80;99.90;;;;;;5139300;27;20562;-81
2021/10/13 08:12:56;;;;;;;7.97;4.53;;;6.90;99.90;;;;;;5139713;27;20181;-81
2021/10/13 08:15:22;;;;;;;8.50;6.10;;;6.90;99.90;;;;;;5139276;27;20182;-81
2021/10/13 08:17:48;;;;;;;8.57;5.83;;;6.90;99.90;;;;;;5140636;27;20605;-81
2021/10/13 08:20:14;;;;;;;8.43;5.53;;;6.80;99.90;;;;;;5139401;27;20201;-81
2021/10/13 08:22:41;;;;;;;14.23;6.70;;;6.70;99.90;;;;;;5139026;27;20192;-81
2021/10/13 08:25:08;;;;;;;6.87;4.83;;;6.70;99.90;;;;;;5138678;27;20178;-81
2021/10/13 08:27:34;;;;;;;7.17;4.57;;;6.70;99.90;;;;;;5140142;27;20195;-82
2021/10/13 08:29:59;;;;;;;6.23;5.20;;;6.80;99.90;;;;;;5139128;27;20204;-82
2021/10/13 08:32:25;;;;;;;8.17;5.77;;;6.80;99.90;;;;;;5139481;27;20310;-82
2021/10/13 08:34:51;;;;;;;6.80;5.37;;;6.80;99.90;;;;;;5140368;27;20520;-81
2021/10/13 08:37:16;;;;;;;5.90;5.30;;;6.80;99.90;;;;;;5139375;27;20207;-81
2021/10/13 08:39:42;;;;;;;6.23;4.53;;;6.90;99.90;;;;;;5138698;27;20207;-81
2021/10/13 08:42:08;;;;;;;6.70;4.80;;;7.10;99.90;;;;;;5138565;27;20178;-81
2021/10/13 08:44:34;;;;;;;5.47;4.73;;;7.10;99.90;;;;;;5138659;27;20178;-81
2021/10/13 08:47:01;;;;;;;6.33;5.27;;;7.10;99.90;;;;;;5139125;27;20572;-81
2021/10/13 08:49:26;;;;;;;4.97;4.43;;;7.30;99.90;;;;;;5138146;27;20781;-81
2021/10/13 08:51:52;;;;;;;6.00;4.77;;;7.40;99.90;;;;;;5137907;27;20266;-81
2021/10/13 08:54:19;;;;;;;5.90;4.90;;;7.50;99.90;;;;;;5138335;27;20674;-82
2021/10/13 08:56:46;;;;;;;4.57;4.10;;;7.70;99.90;;;;;;5136732;27;20199;-82
2021/10/13 08:59:51;;;;;;;8.10;4.20;;;7.80;99.90;;;;;;5139640;27;20310;-82
2021/10/13 09:02:35;;;;;;;4.70;4.20;;;7.90;99.90;;;;;;5062763;28;20192;-81
2021/10/13 09:05:05;;;;;;;5.23;4.37;;;7.90;99.90;;;;;;5079485;28;20169;-81
2021/10/13 09:07:31;;;;;;;5.20;4.53;;;7.90;99.90;;;;;;5111880;27;20171;-82
2021/10/13 09:09:57;;;;;;;6.87;4.20;;;7.70;99.90;;;;;;5141254;27;20198;-82
2021/10/13 09:12:44;;;;;;;6.60;5.57;;;7.50;99.90;;;;;;5143685;27;20171;-82
2021/10/13 09:15:15;;;;;;;8.40;5.47;;;7.30;99.90;;;;;;5151490;27;20232;-81
2021/10/13 09:18:02;;;;;;;6.73;4.70;;;7.20;99.90;;;;;;5148384;27;20627;-81
2021/10/13 09:20:34;;;;;;;6.47;4.90;;;7.20;99.90;;;;;;5150530;27;20246;-81
2021/10/13 09:23:04;;;;;;;5.63;4.80;;;7.20;99.90;;;;;;5151281;27;20171;-81
2021/10/13 09:25:31;;;;;;;5.40;4.70;;;7.10;99.90;;;;;;5152950;27;20169;-81
2021/10/13 09:27:58;;;;;;;6.20;5.17;;;7.10;99.90;;;;;;5154214;27;20181;-81
2021/10/13 09:30:41;;;;;;;7.20;4.40;;;7.00;99.90;;;;;;5153434;27;20197;-80
2021/10/13 09:33:18;;;;;;;8.00;5.23;;;7.20;99.90;;;;;;5141687;27;20225;-81
2021/10/13 09:35:53;;;;;;;5.47;4.47;;;7.50;99.90;;;;;;5140087;27;20584;-81
2021/10/13 09:38:26;;;;;;;4.57;4.00;;;8.00;99.90;;;;;;5140765;27;20170;-81
2021/10/13 09:41:00;;;;;;;4.70;4.17;;;8.40;99.90;;;;;;5139759;27;20715;-82
2021/10/13 09:43:34;;;;;;;3.87;3.43;;;8.40;99.90;;;;;;5139964;27;20625;-82
2021/10/13 09:46:06;;;;;;;8.13;3.87;;;8.50;99.90;;;;;;5140127;27;20316;-82
2021/10/13 09:48:32;;;;;;;4.23;3.83;;;8.30;99.90;;;;;;5141101;27;20284;-81
2021/10/13 09:51:11;;;;;;;5.23;4.10;;;8.40;99.90;;;;;;5139211;27;20661;-81
2021/10/13 09:53:36;;;;;;;6.77;4.57;;;8.30;99.90;;;;;;5141990;27;20235;-81
2021/10/13 09:56:02;;;;;;;5.27;4.00;;;8.30;99.90;;;;;;5140638;27;20199;-82
2021/10/13 09:58:34;;;;;;;4.40;3.97;;;8.60;99.90;;;;;;5143669;27;20174;-82
2021/10/13 10:01:13;;;;;;;7.57;4.43;;;8.60;99.90;;;;;;5145529;27;20170;-81
2021/10/13 10:03:41;;;;;;;5.70;4.03;;;8.70;99.90;;;;;;5150564;27;20213;-82
2021/10/13 10:06:08;;;;;;;6.73;4.37;;;8.80;99.90;;;;;;5147357;27;20175;-81
2021/10/13 10:08:56;;;;;;;5.83;4.43;;;9.10;99.90;;;;;;5144040;27;20198;-81
2021/10/13 10:11:33;;;;;;;4.27;3.40;;;9.30;99.90;;;;;;5138310;27;20204;-81
2021/10/13 10:14:01;;;;;;;5.23;2.90;;;10.40;99.90;;;;;;5138943;27;20500;-80
2021/10/13 10:16:53;;;;;;;5.60;2.67;;;11.50;99.90;;;;;;5139576;27;20198;-81
2021/10/13 10:19:29;;;;;;;3.47;2.40;;;12.60;99.90;;;;;;5134367;27;20206;-80
2021/10/13 10:22:12;;;;;;;2.63;1.97;;;13.40;99.90;;;;;;5138303;27;20178;-81
2021/10/13 10:24:49;;;;;;;3.03;2.53;;;13.30;99.90;;;;;;5138866;27;20160;-81
2021/10/13 10:27:26;;;;;;;2.90;2.10;;;14.10;99.90;;;;;;5139140;27;20217;-81
2021/10/13 10:30:07;;;;;;;3.13;1.97;;;13.80;99.90;;;;;;5137496;27;20198;-81
2021/10/13 10:32:37;;;;;;;4.37;2.20;;;13.00;99.90;;;;;;5138951;27;20195;-82
2021/10/13 10:35:05;;;;;;;4.43;1.90;;;12.10;99.90;;;;;;5138668;27;20186;-81
2021/10/13 10:37:49;;;;;;;3.37;2.00;;;11.40;99.90;;;;;;5138032;27;20276;-81
2021/10/13 10:40:23;;;;;;;5.03;2.97;;;10.80;99.90;;;;;;5139476;27;20223;-81
2021/10/13 10:42:51;;;;;;;6.03;3.03;;;10.50;99.90;;;;;;5139415;27;20594;-81
2021/10/13 10:45:23;;;;;;;3.33;2.43;;;10.30;99.90;;;;;;5139003;27;20567;-81
2021/10/13 10:48:00;;;;;;;3.10;1.80;;;9.90;99.90;;;;;;5138306;27;20176;-81
2021/10/13 10:50:38;;;;;;;6.27;2.10;;;9.40;99.90;;;;;;5139626;27;20194;-80
2021/10/13 10:53:31;;;;;;;3.23;2.47;;;9.30;99.90;;;;;;5139648;27;20199;-81
2021/10/13 10:56:25;;;;;;;3.23;2.07;;;9.70;99.90;;;;;;5133205;27;20575;-81
2021/10/13 10:58:57;;;;;;;3.43;1.90;;;12.00;99.90;;;;;;5117815;28;20224;-81
2021/10/13 11:01:23;;;;;;;3.47;2.10;;;12.40;99.90;;;;;;5120019;28;20165;-81
2021/10/13 11:03:49;;;;;;;4.70;2.23;;;13.70;99.90;;;;;;5119330;28;20238;-81
2021/10/13 11:06:22;;;;;;;4.47;2.17;;;14.50;99.90;;;;;;5118805;28;20204;-81
2021/10/13 11:08:52;;;;;;;4.40;1.63;;;15.10;99.90;;;;;;5120558;28;20202;-82
2021/10/13 11:11:18;;;;;;;1.87;1.60;;;15.90;99.90;;;;;;5119570;28;20187;-82
2021/10/13 11:13:58;;;;;;;2.70;1.83;;;16.50;99.90;;;;;;5118052;28;20191;-81
2021/10/13 11:16:24;;;;;;;3.20;1.90;;;16.40;99.90;;;;;;5119920;28;20203;-82
2021/10/13 11:18:50;;;;;;;3.27;2.03;;;15.20;99.90;;;;;;5118739;28;20541;-82
2021/10/13 11:21:16;;;;;;;5.00;2.90;;;13.30;99.90;;;;;;5120245;28;20209;-82
2021/10/13 11:23:42;;;;;;;3.73;2.97;;;11.80;99.90;;;;;;5120178;28;20242;-82
2021/10/13 11:26:08;;;;;;;2.67;2.40;;;10.90;99.90;;;;;;5120986;28;20180;-82
2021/10/13 11:28:35;;;;;;;2.80;2.60;;;10.30;99.90;;;;;;5126886;28;20221;-81
2021/10/13 11:31:09;;;;;;;5.77;2.97;;;10.00;99.90;;;;;;5128216;28;20180;-81
2021/10/13 11:33:35;;;;;;;5.00;3.00;;;10.00;99.90;;;;;;5125499;28;20216;-83
2021/10/13 11:36:04;;;;;;;2.13;1.90;;;10.00;99.90;;;;;;5119918;28;20535;-82
2021/10/13 11:38:36;;;;;;;5.00;2.60;;;10.10;99.90;;;;;;5119260;28;20199;-81
2021/10/13 11:41:13;;;;;;;3.50;2.40;;;10.20;99.90;;;;;;5120390;28;20179;-81
2021/10/13 11:43:42;;;;;;;2.80;1.83;;;10.30;99.90;;;;;;5124201;28;20230;-82
2021/10/13 11:46:14;;;;;;;2.90;2.10;;;11.40;99.90;;;;;;5121588;28;20641;-81
2021/10/13 11:48:40;;;;;;;3.07;2.00;;;13.00;99.90;;;;;;5117579;28;20203;-81
2021/10/13 11:51:14;;;;;;;2.67;2.10;;;12.60;99.90;;;;;;5116077;28;20269;-81
2021/10/13 11:53:41;;;;;;;2.23;1.87;;;12.20;99.90;;;;;;5117117;28;20176;-81
2021/10/13 11:56:12;;;;;;;2.37;1.90;;;12.00;99.90;;;;;;5117353;28;20191;-81
2021/10/13 11:58:39;;;;;;;1.97;1.57;;;13.70;99.90;;;;;;5116643;28;20192;-81
2021/10/13 12:01:05;;;;;;;3.83;1.67;;;14.00;99.90;;;;;;5115032;28;20191;-81
2021/10/13 12:03:35;;;;;;;2.70;1.90;;;14.40;99.90;;;;;;5119429;28;20176;-81
2021/10/13 12:06:02;;;;;;;3.00;1.90;;;13.80;99.90;;;;;;5117969;28;20255;-81
2021/10/13 12:08:35;;;;;;;3.87;2.00;;;12.00;99.90;;;;;;5118990;28;20179;-81
2021/10/13 12:11:07;;;;;;;3.17;2.00;;;11.90;99.90;;;;;;5118386;28;20225;-81
2021/10/13 12:13:44;;;;;;;4.13;2.20;;;11.10;99.90;;;;;;5119081;28;20184;-81
2021/10/13 12:16:13;;;;;;;3.20;2.00;;;10.60;99.90;;;;;;5121824;28;20227;-81
2021/10/13 12:18:43;;;;;;;4.20;2.20;;;10.30;99.90;;;;;;5121614;28;20203;-81
2021/10/13 12:21:23;;;;;;;2.93;2.20;;;10.00;99.90;;;;;;5121444;28;20657;-81
2021/10/13 12:24:02;;;;;;;6.23;3.10;;;10.60;99.90;;;;;;5123094;28;20163;-81
2021/10/13 12:26:42;;;;;;;4.90;2.57;;;13.10;99.90;;;;;;5106040;28;20187;-82
2021/10/13 12:29:13;;;;;;;3.77;1.97;;;14.10;99.90;;;;;;5122002;28;20213;-81
2021/10/13 12:31:39;;;;;;;6.20;2.70;;;13.70;99.90;;;;;;5122447;28;20176;-81
2021/10/13 12:34:14;;;;;;;17.37;3.33;;;13.70;99.90;;;;;;5122078;28;20596;-81
2021/10/13 12:36:41;;;;;;;6.30;2.40;;;15.00;99.90;;;;;;5122175;28;20208;-81
2021/10/13 12:39:20;;;;;;;5.97;2.47;;;14.10;99.90;;;;;;5121776;28;20193;-82
2021/10/13 12:41:48;;;;;;;7.53;5.87;;;13.20;99.90;;;;;;5122690;28;20180;-81
2021/10/13 12:44:18;;;;;;;8.53;5.43;;;12.80;99.90;;;;;;5123160;28;20177;-81
2021/10/13 12:47:20;;;;;;;8.10;5.80;;;13.70;99.90;;;;;;5124283;28;20250;-82
2021/10/13 12:49:55;;;;;;;3.90;2.30;;;14.10;99.90;;;;;;5121720;28;20612;-83
2021/10/13 12:52:20;;;;;;;3.47;1.73;;;15.00;99.90;;;;;;5121762;28;20633;-84
2021/10/13 12:54:48;;;;;;;4.60;2.30;;;15.10;99.90;;;;;;5121482;28;20178;-83
2021/10/13 12:57:19;;;;;;;9.83;2.00;;;15.30;99.90;;;;;;5122449;28;20204;-81
2021/10/13 12:59:48;;;;;;;16.67;9.73;;;15.30;99.90;;;;;;5121836;28;20681;-82
2021/10/13 13:02:14;;;;;;;10.87;3.20;;;15.30;99.90;;;;;;5122205;28;20180;-82
2021/10/13 13:04:40;;;;;;;22.33;4.20;;;16.00;99.90;;;;;;5122591;28;20175;-82